Time;durP1;ratioP1;P1;durP2;ratioP2;P2;SDS_P1;SDS_P2;PMS_P1;PMS_P2;Temp;Humidity;BMP_temperature;BMP_pressure;BME280_temperature;BME280_humidity;BME280_pressure;Samples;Min_cycle;Max_cycle;Signal;HPM_P1;HPM_P2
2021/01/23 11:46:32;;;;;;;16.87;8.80;;;;;;;;;;5081220;28;20578;-84
2021/01/23 11:48:58;;;;;;;19.35;10.65;;;;;;;;;;5065772;28;20508;-84
2021/01/23 11:51:24;;;;;;;16.08;7.78;;;;;;;;;;5070296;28;20729;-85
2021/01/23 11:53:51;;;;;;;25.60;13.75;;;10.40;99.90;;;;;;5070194;28;20221;-87
2021/01/23 11:56:16;;;;;;;19.40;9.23;;;12.20;99.90;;;;;;5070607;28;20179;-86
2021/01/23 11:58:43;;;;;;;26.40;11.40;;;9.60;99.90;;;;;;5072324;28;20183;-85
2021/01/23 12:01:08;;;;;;;24.60;9.80;;;9.40;99.90;;;;;;5084109;28;20194;-85
2021/01/23 12:03:34;;;;;;;11.63;6.10;;;9.20;99.90;;;;;;5061502;28;20198;-85
2021/01/23 12:06:00;;;;;;;17.60;8.43;;;9.00;99.90;;;;;;5078990;28;20211;-85
2021/01/23 12:08:25;;;;;;;20.27;8.60;;;8.90;99.90;;;;;;5058978;28;20210;-85
2021/01/23 12:10:51;;;;;;;15.00;6.83;;;8.80;99.90;;;;;;5073152;28;20187;-85
2021/01/23 12:13:17;;;;;;;18.27;7.93;;;8.80;99.90;;;;;;5079491;28;20233;-85
2021/01/23 12:15:43;;;;;;;12.10;5.70;;;8.70;99.90;;;;;;5063200;28;20689;-84
2021/01/23 12:18:09;;;;;;;16.87;8.10;;;8.70;99.90;;;;;;5080483;28;20188;-86
2021/01/23 12:20:34;;;;;;;19.30;8.07;;;8.60;99.90;;;;;;5065214;28;20666;-90
2021/01/23 12:23:00;;;;;;;13.63;7.17;;;8.60;99.90;;;;;;5082671;28;20217;-86
2021/01/23 12:25:26;;;;;;;15.30;7.67;;;8.60;99.90;;;;;;5073022;28;20199;-85
2021/01/23 12:27:53;;;;;;;15.77;7.07;;;8.60;99.90;;;;;;5053660;28;20667;-84
2021/01/23 12:30:19;;;;;;;25.53;9.97;;;8.50;99.90;;;;;;5077201;28;20629;-83
2021/01/23 12:32:45;;;;;;;23.37;9.50;;;8.50;99.90;;;;;;5072186;28;20543;-86
2021/01/23 12:35:12;;;;;;;19.93;8.83;;;8.40;99.90;;;;;;5084637;28;20179;-83
2021/01/23 12:37:38;;;;;;;24.33;11.00;;;8.40;99.90;;;;;;5072052;28;20579;-85
2021/01/23 12:40:08;;;;;;;16.47;9.10;;;8.40;99.90;;;;;;5110384;27;20487;-86
2021/01/23 12:42:34;;;;;;;22.17;9.20;;;8.30;99.90;;;;;;5072716;28;20180;-85
2021/01/23 12:45:00;;;;;;;21.50;9.67;;;8.30;99.90;;;;;;5058385;28;20258;-86
2021/01/23 12:47:27;;;;;;;17.60;8.30;;;8.30;99.90;;;;;;5058363;28;20271;-87
2021/01/23 12:49:53;;;;;;;17.10;9.77;;;8.30;99.90;;;;;;5074894;28;20194;-86
2021/01/23 12:52:19;;;;;;;21.47;8.97;;;8.30;99.90;;;;;;5078006;28;20171;-85
2021/01/23 12:54:44;;;;;;;25.90;10.73;;;8.30;99.90;;;;;;5097228;28;20243;-83
2021/01/23 12:57:10;;;;;;;29.50;14.20;;;8.20;99.90;;;;;;5062939;28;20188;-85
2021/01/23 12:59:36;;;;;;;31.13;16.27;;;8.20;99.90;;;;;;5055973;28;20182;-86
2021/01/23 13:02:03;;;;;;;33.33;16.90;;;8.20;99.90;;;;;;5089228;28;20188;-87
2021/01/23 13:04:28;;;;;;;41.23;17.90;;;8.20;99.90;;;;;;5040729;28;20237;-86
2021/01/23 13:06:54;;;;;;;41.73;18.43;;;8.20;99.90;;;;;;5059496;28;20341;-86
2021/01/23 13:09:20;;;;;;;35.30;16.67;;;8.20;99.90;;;;;;5075583;28;20187;-90
2021/01/23 13:11:45;;;;;;;39.80;18.37;;;8.10;99.90;;;;;;5045404;28;20184;-86
2021/01/23 13:14:11;;;;;;;34.03;16.27;;;8.10;99.90;;;;;;5084602;28;20187;-89
2021/01/23 13:16:37;;;;;;;28.13;14.13;;;8.10;99.90;;;;;;5050293;28;20191;-88
2021/01/23 13:19:04;;;;;;;30.23;14.07;;;8.00;99.90;;;;;;5068405;28;20179;-87
2021/01/23 13:21:39;;;;;;;43.10;18.07;;;8.10;99.90;;;;;;5065209;28;20672;-89
2021/01/23 13:24:05;;;;;;;40.43;17.90;;;8.00;99.90;;;;;;5091358;28;20206;-86
2021/01/23 13:26:31;;;;;;;34.90;16.80;;;8.10;99.90;;;;;;5061298;28;20211;-86
2021/01/23 13:28:56;;;;;;;38.03;17.17;;;8.10;99.90;;;;;;5062210;28;20741;-86
2021/01/23 13:31:23;;;;;;;40.07;16.37;;;8.10;99.90;;;;;;5068003;28;20529;-86
2021/01/23 13:33:52;;;;;;;33.27;15.60;;;8.20;99.90;;;;;;5050946;28;20179;-85
2021/01/23 13:36:18;;;;;;;38.63;16.37;;;8.20;99.90;;;;;;5062028;28;20188;-86
2021/01/23 13:38:44;;;;;;;43.27;16.97;;;8.20;99.90;;;;;;5061846;28;20635;-87
2021/01/23 13:41:10;;;;;;;32.97;15.73;;;8.20;99.90;;;;;;5071015;28;20224;-86
2021/01/23 13:43:35;;;;;;;37.83;16.00;;;8.20;99.90;;;;;;5047439;28;20305;-87
2021/01/23 13:46:01;;;;;;;32.93;13.80;;;8.20;99.90;;;;;;5045254;28;20729;-86
2021/01/23 13:48:27;;;;;;;30.83;14.10;;;8.20;99.90;;;;;;5051964;28;20662;-83
2021/01/23 13:50:52;;;;;;;34.40;16.37;;;8.20;99.90;;;;;;5059461;28;20274;-84
2021/01/23 13:53:18;;;;;;;39.57;16.83;;;8.10;99.90;;;;;;5063427;28;20686;-86
2021/01/23 13:55:43;;;;;;;38.30;17.80;;;8.10;99.90;;;;;;5060086;28;20210;-85
2021/01/23 13:58:09;;;;;;;33.17;15.33;;;8.10;99.90;;;;;;5066064;28;20234;-85
2021/01/23 14:00:35;;;;;;;23.20;12.67;;;8.10;99.90;;;;;;5094011;28;20655;-87
2021/01/23 14:03:02;;;;;;;28.07;11.77;;;8.10;99.90;;;;;;5058715;28;20194;-86
2021/01/23 14:05:28;;;;;;;33.90;13.97;;;8.10;99.90;;;;;;5055217;28;20237;-88
2021/01/23 14:07:54;;;;;;;36.97;14.83;;;8.10;99.90;;;;;;5045572;28;20202;-86
2021/01/23 14:10:20;;;;;;;37.70;15.50;;;8.10;99.90;;;;;;5063822;28;20187;-89
2021/01/23 14:12:46;;;;;;;25.47;11.93;;;8.10;99.90;;;;;;5043677;28;20517;-88
2021/01/23 14:15:12;;;;;;;30.47;12.77;;;8.10;99.90;;;;;;5079844;28;20195;-88
2021/01/23 14:17:38;;;;;;;32.47;15.30;;;8.00;99.90;;;;;;5058219;28;20195;-87
2021/01/23 14:20:05;;;;;;;49.57;22.43;;;8.00;99.90;;;;;;5056377;28;20207;-86
2021/01/23 14:22:30;;;;;;;57.20;19.90;;;8.00;99.90;;;;;;5082925;28;20301;-86
2021/01/23 14:24:56;;;;;;;74.70;30.57;;;8.00;99.90;;;;;;5058747;28;20219;-85
2021/01/23 14:27:22;;;;;;;89.67;36.43;;;8.00;99.90;;;;;;5067163;28;20179;-86
2021/01/23 14:29:49;;;;;;;158.97;60.27;;;8.00;99.90;;;;;;5039462;28;20538;-86
2021/01/23 14:32:16;;;;;;;257.40;93.23;;;7.90;99.90;;;;;;5069362;28;20660;-85
2021/01/23 14:34:41;;;;;;;261.37;86.30;;;7.90;99.90;;;;;;5074331;28;20187;-87
2021/01/23 14:37:07;;;;;;;198.03;71.70;;;7.80;99.90;;;;;;5026869;28;20191;-85
2021/01/23 14:39:36;;;;;;;155.60;58.23;;;7.80;99.90;;;;;;5047396;28;20195;-89
2021/01/23 14:42:02;;;;;;;94.90;37.47;;;7.70;99.90;;;;;;5057576;28;20203;-90
2021/01/23 14:44:28;;;;;;;85.37;31.57;;;7.70;99.90;;;;;;5057257;28;20232;-88
2021/01/23 14:46:54;;;;;;;186.80;57.80;;;7.70;99.90;;;;;;5062204;28;20206;-87
2021/01/23 14:49:37;;;;;;;168.23;54.67;;;7.70;99.90;;;;;;5049400;28;20180;-92
2021/01/23 14:52:04;;;;;;;211.80;64.70;;;10.10;99.90;;;;;;5017587;28;20242;-88
2021/01/23 14:54:30;;;;;;;162.47;53.77;;;7.70;99.90;;;;;;5053123;28;20275;-87
2021/01/23 14:56:56;;;;;;;110.40;35.87;;;7.60;99.90;;;;;;5100576;28;20184;-89
2021/01/23 14:59:22;;;;;;;124.87;44.00;;;7.60;99.90;;;;;;5056423;28;20675;-87
2021/01/23 15:01:48;;;;;;;77.00;26.70;;;7.60;99.90;;;;;;5039254;28;20187;-87
2021/01/23 15:04:13;;;;;;;105.17;41.83;;;7.60;99.90;;;;;;5055190;28;20261;-86
2021/01/23 15:06:39;;;;;;;79.83;33.47;;;7.60;99.90;;;;;;5057425;28;20202;-86
2021/01/23 15:09:06;;;;;;;89.10;33.97;;;7.60;99.90;;;;;;5045095;28;20219;-87
2021/01/23 15:11:32;;;;;;;54.97;25.47;;;7.60;99.90;;;;;;5038164;28;20651;-87
2021/01/23 15:13:58;;;;;;;93.83;51.17;;;7.60;99.90;;;;;;5049694;28;20259;-87
2021/01/23 15:16:24;;;;;;;49.90;23.33;;;7.50;99.90;;;;;;5058108;28;20287;-90
2021/01/23 15:18:49;;;;;;;53.70;26.23;;;7.60;99.90;;;;;;5062006;28;20270;-90
2021/01/23 15:21:15;;;;;;;41.70;19.87;;;7.60;99.90;;;;;;5054698;28;20314;-91
2021/01/23 15:23:41;;;;;;;70.33;28.97;;;7.70;99.90;;;;;;5053198;28;20237;-91
2021/01/23 15:26:07;;;;;;;72.07;27.43;;;7.60;99.90;;;;;;5054067;28;20314;-90
2021/01/23 15:28:34;;;;;;;66.20;28.43;;;7.50;99.90;;;;;;5066170;28;20191;-89
2021/01/23 15:31:00;;;;;;;61.77;26.83;;;7.40;99.90;;;;;;5065639;28;20223;-87
2021/01/23 15:33:26;;;;;;;59.47;24.13;;;7.40;99.90;;;;;;5053120;28;20218;-87
2021/01/23 15:35:51;;;;;;;65.60;28.43;;;7.30;99.90;;;;;;5053079;28;20260;-87
2021/01/23 15:38:17;;;;;;;65.03;27.97;;;7.30;99.90;;;;;;5031920;28;20290;-88
2021/01/23 15:40:43;;;;;;;65.87;25.97;;;7.20;99.90;;;;;;5055334;28;20746;-87
2021/01/23 15:43:09;;;;;;;141.73;58.07;;;7.40;99.90;;;;;;5052974;28;20709;-86
2021/01/23 15:45:35;;;;;;;100.40;43.27;;;7.20;99.90;;;;;;5051537;28;20238;-87
2021/01/23 15:48:00;;;;;;;72.80;30.57;;;7.20;99.90;;;;;;5051272;28;20190;-87
2021/01/23 15:50:27;;;;;;;70.73;29.13;;;7.30;99.90;;;;;;5052007;28;20273;-88
2021/01/23 15:52:52;;;;;;;67.17;25.80;;;7.30;99.90;;;;;;5053284;28;20188;-90
2021/01/23 15:55:19;;;;;;;56.30;23.30;;;7.30;99.90;;;;;;5043867;28;20636;-88
2021/01/23 15:57:45;;;;;;;51.63;22.00;;;7.30;99.90;;;;;;5062823;28;20187;-88
2021/01/23 16:00:14;;;;;;;43.20;20.40;;;7.30;99.90;;;;;;5065142;28;20191;-87
2021/01/23 16:02:39;;;;;;;95.80;36.07;;;7.40;99.90;;;;;;5054814;28;20225;-87
2021/01/23 16:05:08;;;;;;;43.03;20.03;;;7.40;99.90;;;;;;5068731;28;20203;-86
2021/01/23 16:07:34;;;;;;;48.07;18.53;;;7.40;99.90;;;;;;5071994;28;20606;-87
2021/01/23 16:10:03;;;;;;;39.87;17.33;;;7.50;99.90;;;;;;5057276;28;20261;-87
2021/01/23 16:12:32;;;;;;;37.97;15.87;;;7.70;99.90;;;;;;5054444;28;20202;-88
2021/01/23 16:14:59;;;;;;;42.77;15.80;;;7.50;99.90;;;;;;5050851;28;20215;-86
2021/01/23 16:17:24;;;;;;;54.20;20.50;;;7.70;99.90;;;;;;5039090;28;20180;-87
2021/01/23 16:19:51;;;;;;;56.23;21.83;;;7.60;99.90;;;;;;5040350;28;20716;-86
2021/01/23 16:22:17;;;;;;;51.07;19.00;;;7.70;99.90;;;;;;5056596;28;20175;-86
2021/01/23 16:24:43;;;;;;;41.13;16.20;;;7.60;99.90;;;;;;5092865;28;20222;-85
2021/01/23 16:27:09;;;;;;;44.93;15.20;;;7.70;99.90;;;;;;5044012;28;20183;-84
2021/01/23 16:29:34;;;;;;;43.67;17.93;;;7.70;99.90;;;;;;5068834;28;20524;-83
2021/01/23 16:32:01;;;;;;;51.83;19.90;;;7.70;99.90;;;;;;5049688;28;20183;-85
2021/01/23 16:34:26;;;;;;;51.63;22.60;;;7.70;99.90;;;;;;5067469;28;20230;-85
2021/01/23 16:36:52;;;;;;;48.17;20.23;;;7.60;99.90;;;;;;5040904;28;20184;-85
2021/01/23 16:39:18;;;;;;;67.03;26.80;;;7.60;99.90;;;;;;5049791;28;20666;-85
2021/01/23 16:41:47;;;;;;;68.17;26.37;;;7.60;99.90;;;;;;5057598;28;20175;-87
2021/01/23 16:44:13;;;;;;;59.17;22.80;;;7.60;99.90;;;;;;5063415;28;20195;-86
2021/01/23 16:46:38;;;;;;;49.60;20.10;;;7.50;99.90;;;;;;5063299;28;20214;-88
2021/01/23 16:49:04;;;;;;;49.13;18.50;;;7.60;99.90;;;;;;5065020;28;20597;-87
2021/01/23 16:51:30;;;;;;;35.53;15.70;;;7.50;99.90;;;;;;5056959;28;20524;-87
2021/01/23 16:53:56;;;;;;;42.73;17.07;;;7.60;99.90;;;;;;5059112;28;20175;-88
2021/01/23 16:56:22;;;;;;;57.87;25.30;;;7.60;99.90;;;;;;5069909;28;20669;-87
2021/01/23 16:58:48;;;;;;;47.03;20.67;;;7.60;99.90;;;;;;5037779;28;20568;-86
2021/01/23 17:01:14;;;;;;;49.10;23.77;;;7.60;99.90;;;;;;5044203;28;20191;-87
2021/01/23 17:03:44;;;;;;;34.03;13.90;;;7.50;99.90;;;;;;5056605;28;20198;-88
2021/01/23 17:06:10;;;;;;;40.00;18.23;;;7.50;99.90;;;;;;5070850;28;20208;-87
2021/01/23 17:08:38;;;;;;;42.03;15.80;;;7.50;99.90;;;;;;5055174;28;20617;-86
2021/01/23 17:11:07;;;;;;;45.57;17.03;;;7.60;99.90;;;;;;5055300;28;20322;-87
2021/01/23 17:13:33;;;;;;;42.03;16.00;;;7.50;99.90;;;;;;5059209;28;20226;-88
2021/01/23 17:15:59;;;;;;;35.13;14.97;;;7.50;99.90;;;;;;5058709;28;20616;-86
2021/01/23 17:18:28;;;;;;;38.27;16.43;;;7.60;99.90;;;;;;5076803;28;20521;-87
2021/01/23 17:21:02;;;;;;;54.03;26.73;;;7.40;99.90;;;;;;5075460;28;20183;-87
2021/01/23 17:23:31;;;;;;;45.80;22.83;;;7.30;99.90;;;;;;5076448;28;20202;-87
2021/01/23 17:25:57;;;;;;;44.43;20.57;;;9.60;99.90;;;;;;5075665;28;20203;-87
2021/01/23 17:28:23;;;;;;;78.13;34.80;;;7.30;99.90;;;;;;5063967;28;20350;-87
2021/01/23 17:30:49;;;;;;;120.67;45.63;;;7.30;99.90;;;;;;5055135;28;20279;-87
2021/01/23 17:33:15;;;;;;;110.10;52.13;;;7.10;99.90;;;;;;5055157;28;20215;-86
2021/01/23 17:35:41;;;;;;;80.57;40.37;;;7.00;99.90;;;;;;5084180;28;20656;-87
2021/01/23 17:38:08;;;;;;;67.00;30.97;;;7.20;99.90;;;;;;5056681;28;20587;-86
2021/01/23 17:40:35;;;;;;;68.67;33.27;;;8.90;99.90;;;;;;5047366;28;20705;-87
2021/01/23 17:43:01;;;;;;;72.50;33.20;;;6.90;99.90;;;;;;5072295;28;20171;-86
2021/01/23 17:45:30;;;;;;;70.17;35.03;;;7.00;99.90;;;;;;5055572;28;20704;-86
2021/01/23 17:47:56;;;;;;;80.03;36.20;;;6.90;99.90;;;;;;5054633;28;20184;-87
2021/01/23 17:50:23;;;;;;;83.50;37.67;;;6.90;99.90;;;;;;5055159;28;20188;-86
2021/01/23 17:52:49;;;;;;;126.17;46.13;;;6.90;99.90;;;;;;5054383;28;20176;-88
2021/01/23 17:55:15;;;;;;;109.67;46.77;;;6.60;99.90;;;;;;5054722;28;20541;-88
2021/01/23 17:57:41;;;;;;;113.87;46.30;;;5.50;99.90;;;;;;5054124;28;20179;-88
2021/01/23 18:00:09;;;;;;;116.27;52.07;;;6.70;99.90;;;;;;5061734;28;20260;-86
2021/01/23 18:02:35;;;;;;;248.60;98.13;;;6.50;99.90;;;;;;5074912;28;20180;-86
2021/01/23 18:05:03;;;;;;;146.80;65.37;;;6.50;99.90;;;;;;5056439;28;20687;-87
2021/01/23 18:07:29;;;;;;;160.43;65.53;;;6.60;99.90;;;;;;5033824;28;20254;-86
2021/01/23 18:09:55;;;;;;;231.10;97.60;;;6.50;99.90;;;;;;5057196;28;20270;-87
2021/01/23 18:12:21;;;;;;;139.00;71.20;;;6.20;99.90;;;;;;5057581;28;20200;-89
2021/01/23 18:14:49;;;;;;;293.77;125.73;;;7.50;99.90;;;;;;5093157;28;20192;-88
2021/01/23 18:17:15;;;;;;;179.63;82.00;;;6.50;99.90;;;;;;5063132;28;20244;-87
2021/01/23 18:19:43;;;;;;;91.40;42.87;;;6.50;99.90;;;;;;5044217;28;20191;-86
2021/01/23 18:22:09;;;;;;;129.37;58.10;;;6.40;99.90;;;;;;5062389;28;20244;-87
2021/01/23 18:24:35;;;;;;;105.20;46.13;;;6.40;99.90;;;;;;5066066;28;20186;-86
2021/01/23 18:27:00;;;;;;;154.40;49.93;;;6.40;99.90;;;;;;5074364;28;20184;-86
2021/01/23 18:29:26;;;;;;;152.87;56.03;;;6.40;99.90;;;;;;5052896;28;20209;-86
2021/01/23 18:31:52;;;;;;;81.47;33.47;;;6.50;99.90;;;;;;5072839;28;20183;-84
2021/01/23 18:34:20;;;;;;;116.03;46.83;;;6.50;99.90;;;;;;5078145;28;20202;-87
2021/01/23 18:36:48;;;;;;;66.27;25.70;;;6.30;99.90;;;;;;5081057;28;20187;-86
2021/01/23 18:39:15;;;;;;;73.40;30.93;;;7.80;99.90;;;;;;5081098;28;20214;-88
2021/01/23 18:41:44;;;;;;;180.10;63.10;;;6.40;99.90;;;;;;5100991;28;20180;-88
2021/01/23 18:44:11;;;;;;;247.73;81.33;;;6.40;99.90;;;;;;5074113;28;20203;-87
2021/01/23 18:46:43;;;;;;;173.87;74.20;;;6.40;99.90;;;;;;5075377;28;20206;-87
2021/01/23 18:49:16;;;;;;;85.13;33.23;;;6.40;99.90;;;;;;5062990;28;20183;-88
2021/01/23 18:51:43;;;;;;;62.13;37.13;;;6.40;99.90;;;;;;5066044;28;20522;-86
2021/01/23 18:54:12;;;;;;;51.87;21.17;;;6.40;99.90;;;;;;5041724;28;20203;-88
2021/01/23 18:56:43;;;;;;;316.30;95.63;;;6.70;99.90;;;;;;5028413;28;20199;-86
2021/01/23 18:59:14;;;;;;;278.20;103.20;;;6.40;99.90;;;;;;5057625;28;20180;-86
2021/01/23 19:01:40;;;;;;;166.10;59.83;;;6.40;99.90;;;;;;5058998;28;20189;-86
2021/01/23 19:04:07;;;;;;;98.40;44.87;;;6.30;99.90;;;;;;5061741;28;20188;-86
2021/01/23 19:06:36;;;;;;;223.20;135.23;;;7.00;99.90;;;;;;5049602;28;20223;-87
2021/01/23 19:09:11;;;;;;;184.73;66.43;;;6.20;99.90;;;;;;5054931;28;20183;-86
2021/01/23 19:11:37;;;;;;;508.93;147.07;;;6.20;99.90;;;;;;5088514;28;20188;-86
2021/01/23 19:14:03;;;;;;;252.27;81.77;;;6.20;99.90;;;;;;5042475;28;20191;-88
2021/01/23 19:16:29;;;;;;;177.57;60.63;;;6.10;99.90;;;;;;5046965;28;20241;-86
2021/01/23 19:18:54;;;;;;;149.43;56.67;;;6.00;99.90;;;;;;5061744;28;20214;-85
2021/01/23 19:21:20;;;;;;;262.27;89.20;;;7.20;99.90;;;;;;5044348;28;20702;-87
2021/01/23 19:23:46;;;;;;;215.03;80.03;;;5.90;99.90;;;;;;5036936;28;20195;-86
2021/01/23 19:26:11;;;;;;;154.57;56.87;;;5.80;99.90;;;;;;5035794;28;20216;-86
2021/01/23 19:28:37;;;;;;;160.83;59.80;;;5.80;99.90;;;;;;5085355;28;20831;-87
2021/01/23 19:31:10;;;;;;;148.47;56.87;;;5.70;99.90;;;;;;5075409;28;20318;-85
2021/01/23 19:33:36;;;;;;;100.30;39.50;;;5.70;99.90;;;;;;5080569;28;20180;-87
2021/01/23 19:36:04;;;;;;;90.13;34.40;;;5.60;99.90;;;;;;5086809;28;20667;-87
2021/01/23 19:38:30;;;;;;;79.67;32.93;;;5.50;99.90;;;;;;5057043;28;20187;-87
2021/01/23 19:40:56;;;;;;;81.40;32.33;;;5.50;99.90;;;;;;5037231;28;20536;-86
2021/01/23 19:43:55;;;;;;;71.13;28.27;;;5.40;99.90;;;;;;5053988;28;20194;-85
2021/01/23 19:46:23;;;;;;;72.93;28.33;;;5.60;99.90;;;;;;5069883;28;20245;-88
2021/01/23 19:48:49;;;;;;;66.40;25.67;;;5.20;99.90;;;;;;5050415;28;20203;-86
2021/01/23 19:51:15;;;;;;;63.63;24.50;;;5.70;99.90;;;;;;5068616;28;20194;-86
2021/01/23 19:53:43;;;;;;;83.50;31.67;;;5.10;99.90;;;;;;5065647;28;20620;-85
2021/01/23 19:56:09;;;;;;;74.77;28.57;;;6.10;99.90;;;;;;5061192;28;20216;-84
2021/01/23 19:59:00;;;;;;;110.47;40.97;;;4.90;99.90;;;;;;5049123;28;20294;-86
2021/01/23 20:01:32;;;;;;;105.83;40.90;;;4.60;99.90;;;;;;5066662;28;20199;-86
2021/01/23 20:03:58;;;;;;;131.30;51.13;;;4.80;99.90;;;;;;5034008;28;20191;-85
2021/01/23 20:06:44;;;;;;;235.80;78.07;;;4.70;99.90;;;;;;5037364;28;20316;-84
2021/01/23 20:09:57;;;;;;;527.53;154.60;;;4.70;99.90;;;;;;5060647;28;20275;-85
2021/01/23 20:12:32;;;;;;;583.80;210.87;;;4.70;99.90;;;;;;5041019;28;20238;-85
2021/01/23 20:15:12;;;;;;;458.33;137.13;;;4.70;99.90;;;;;;4995466;28;20212;-86
2021/01/23 20:17:38;;;;;;;299.87;97.53;;;4.60;99.90;;;;;;4995284;28;20608;-85
2021/01/23 20:20:07;;;;;;;305.13;102.33;;;4.60;99.90;;;;;;4987793;28;20205;-85
2021/01/23 20:22:33;;;;;;;268.33;91.40;;;4.50;99.90;;;;;;4978344;28;20216;-85
2021/01/23 20:24:59;;;;;;;253.33;85.87;;;4.50;99.90;;;;;;4962595;28;20686;-86
2021/01/23 20:27:25;;;;;;;261.20;91.20;;;4.90;99.90;;;;;;4995060;28;20194;-86
2021/01/23 20:29:50;;;;;;;228.47;82.60;;;4.40;99.90;;;;;;4974649;28;20235;-86
2021/01/23 20:32:16;;;;;;;176.27;72.67;;;4.30;99.90;;;;;;4966114;28;20207;-85
2021/01/23 20:34:47;;;;;;;150.53;61.93;;;4.30;99.90;;;;;;4958832;28;20198;-86
2021/01/23 20:37:13;;;;;;;137.10;57.27;;;4.20;99.90;;;;;;4961452;28;20206;-86
2021/01/23 20:39:39;;;;;;;127.00;56.30;;;4.20;99.90;;;;;;4956189;29;20191;-88
2021/01/23 20:42:07;;;;;;;117.73;51.83;;;4.20;99.90;;;;;;4955860;29;20210;-85
2021/01/23 20:44:33;;;;;;;133.00;57.37;;;4.10;99.90;;;;;;4939569;29;20731;-87
2021/01/23 20:46:58;;;;;;;133.37;58.17;;;4.10;99.90;;;;;;4955863;29;20273;-87
2021/01/23 20:49:24;;;;;;;139.37;55.70;;;4.00;99.90;;;;;;4955594;29;20195;-85
2021/01/23 20:51:50;;;;;;;118.17;50.63;;;4.00;99.90;;;;;;4965589;28;20214;-86
2021/01/23 20:54:16;;;;;;;97.57;43.47;;;3.90;99.90;;;;;;4952386;28;20343;-86
2021/01/23 20:56:41;;;;;;;108.57;45.80;;;3.90;99.90;;;;;;4998278;28;20277;-84
2021/01/23 20:59:07;;;;;;;113.67;48.80;;;3.80;99.90;;;;;;4992356;28;20193;-85
2021/01/23 21:01:33;;;;;;;115.83;50.23;;;4.80;99.90;;;;;;4959711;28;20189;-84
2021/01/23 21:03:58;;;;;;;119.73;54.80;;;3.70;99.90;;;;;;4992065;28;20182;-87
2021/01/23 21:06:24;;;;;;;201.87;79.60;;;4.40;99.90;;;;;;5064587;28;20726;-87
2021/01/23 21:08:52;;;;;;;195.93;76.67;;;3.60;99.90;;;;;;5049801;28;20211;-86
2021/01/23 21:11:18;;;;;;;191.50;77.17;;;3.80;99.90;;;;;;5066183;28;20259;-87
2021/01/23 21:13:44;;;;;;;178.63;70.70;;;3.60;99.90;;;;;;5033576;28;20620;-87
2021/01/23 21:16:10;;;;;;;172.60;73.57;;;3.60;99.90;;;;;;5049690;28;20675;-87
2021/01/23 21:18:51;;;;;;;192.57;82.33;;;3.50;99.90;;;;;;5032740;28;20566;-88
2021/01/23 21:21:16;;;;;;;209.00;86.83;;;3.50;99.90;;;;;;5064671;28;20214;-87
2021/01/23 21:23:43;;;;;;;188.97;75.83;;;4.20;99.90;;;;;;5033732;28;20671;-87
2021/01/23 21:26:08;;;;;;;171.97;72.60;;;3.50;99.90;;;;;;5066790;28;20204;-86
2021/01/23 21:28:34;;;;;;;195.60;82.60;;;4.50;99.90;;;;;;5050332;28;20656;-85
2021/01/23 21:31:03;;;;;;;175.30;73.47;;;3.40;99.90;;;;;;5050574;28;20196;-86
2021/01/23 21:33:30;;;;;;;215.63;87.60;;;3.40;99.90;;;;;;5066762;28;20664;-87
2021/01/23 21:36:06;;;;;;;317.93;119.53;;;3.70;99.90;;;;;;5034956;28;20191;-85
2021/01/23 21:38:32;;;;;;;216.97;88.83;;;;;;;;;;5035818;28;20171;-85
2021/01/23 21:40:58;;;;;;;248.50;95.37;;;3.30;99.90;;;;;;5050138;28;20664;-86
2021/01/23 21:43:23;;;;;;;326.67;120.47;;;3.20;99.90;;;;;;5067068;28;20218;-85
2021/01/23 21:45:51;;;;;;;442.90;153.73;;;3.20;99.90;;;;;;5049583;28;20321;-86
2021/01/23 21:48:17;;;;;;;411.37;141.80;;;;;;;;;;5050258;28;20187;-87
2021/01/23 21:50:43;;;;;;;436.77;145.60;;;3.20;99.90;;;;;;5033545;28;20609;-87
2021/01/23 21:53:09;;;;;;;464.20;167.07;;;3.20;99.90;;;;;;5066814;28;20184;-86
2021/01/23 21:55:34;;;;;;;478.43;174.97;;;3.20;99.90;;;;;;5033699;28;20254;-86
2021/01/23 21:58:02;;;;;;;491.27;180.23;;;3.80;99.90;;;;;;5040019;28;20180;-84
2021/01/23 22:00:28;;;;;;;476.83;174.37;;;3.20;99.90;;;;;;5036912;28;20273;-86
2021/01/23 22:02:55;;;;;;;391.13;145.07;;;3.30;99.90;;;;;;5054825;28;20276;-83
2021/01/23 22:05:21;;;;;;;398.57;140.17;;;3.40;99.90;;;;;;5053678;28;20223;-85
2021/01/23 22:07:47;;;;;;;317.20;122.67;;;3.30;99.90;;;;;;5054630;28;20182;-86
2021/01/23 22:10:12;;;;;;;222.10;89.63;;;3.40;99.90;;;;;;5053469;28;20199;-85
2021/01/23 22:12:38;;;;;;;305.23;110.00;;;3.40;99.90;;;;;;5053744;28;20186;-85
2021/01/23 22:15:04;;;;;;;271.37;99.63;;;3.40;99.90;;;;;;5036656;28;20214;-85
2021/01/23 22:17:33;;;;;;;265.30;101.57;;;3.50;99.90;;;;;;5036490;28;20981;-85
2021/01/23 22:20:01;;;;;;;233.57;91.10;;;3.90;99.90;;;;;;5054773;28;20198;-86
2021/01/23 22:22:26;;;;;;;253.90;95.37;;;3.50;99.90;;;;;;5053167;28;20188;-85
2021/01/23 22:24:55;;;;;;;265.57;98.97;;;3.80;99.90;;;;;;5053258;28;20211;-86
2021/01/23 22:27:21;;;;;;;254.43;96.67;;;3.90;99.90;;;;;;5052687;28;20180;-85
2021/01/23 22:30:07;;;;;;;301.30;111.60;;;3.50;99.90;;;;;;5051752;28;20190;-86
2021/01/23 22:32:35;;;;;;;302.83;109.57;;;3.40;99.90;;;;;;5051473;28;20290;-85
2021/01/23 22:35:02;;;;;;;324.03;120.07;;;3.40;99.90;;;;;;5051235;28;20279;-87
2021/01/23 22:37:28;;;;;;;360.40;134.40;;;3.30;99.90;;;;;;5034999;28;20195;-86
2021/01/23 22:39:53;;;;;;;417.00;147.50;;;3.30;99.90;;;;;;5035071;28;20321;-84
2021/01/23 22:42:19;;;;;;;380.97;141.63;;;3.20;99.90;;;;;;5034795;28;20197;-85
2021/01/23 22:45:09;;;;;;;389.63;141.57;;;3.20;99.90;;;;;;5034015;28;20254;-84
2021/01/23 22:47:35;;;;;;;424.57;154.27;;;;;;;;;;5034760;28;20238;-85
2021/01/23 22:50:01;;;;;;;505.90;176.23;;;;;;;;;;5034729;28;20175;-86
2021/01/23 22:52:27;;;;;;;503.50;173.13;;;3.10;99.90;;;;;;5034781;28;20193;-85
2021/01/23 22:54:53;;;;;;;558.53;202.50;;;3.30;99.90;;;;;;5051468;28;20544;-86
2021/01/23 22:57:39;;;;;;;533.60;196.13;;;3.40;99.90;;;;;;5051109;28;20193;-85
2021/01/23 23:00:29;;;;;;;500.73;168.13;;;3.20;99.90;;;;;;5071170;28;20283;-85
2021/01/23 23:02:58;;;;;;;397.97;133.57;;;3.20;99.90;;;;;;5051986;28;20199;-85
2021/01/23 23:05:28;;;;;;;413.00;141.23;;;3.30;99.90;;;;;;5054145;28;20334;-86
2021/01/23 23:07:54;;;;;;;394.00;134.80;;;4.60;99.90;;;;;;5071686;28;20537;-85
2021/01/23 23:10:21;;;;;;;264.27;97.73;;;3.30;99.90;;;;;;5071128;28;20212;-85
2021/01/23 23:12:52;;;;;;;294.10;102.17;;;4.30;99.90;;;;;;5071286;28;20190;-85
2021/01/23 23:15:19;;;;;;;316.97;113.27;;;3.40;99.90;;;;;;5071070;28;20679;-86
2021/01/23 23:17:46;;;;;;;283.30;103.37;;;3.40;99.90;;;;;;5054294;28;20671;-85
2021/01/23 23:20:13;;;;;;;348.43;117.80;;;3.40;99.90;;;;;;5071048;28;20195;-86
2021/01/23 23:22:43;;;;;;;366.63;125.47;;;3.40;99.90;;;;;;5071169;28;20218;-86
2021/01/23 23:25:10;;;;;;;325.07;117.43;;;3.40;99.90;;;;;;5054037;28;20705;-87
2021/01/23 23:27:35;;;;;;;325.33;114.23;;;3.40;99.90;;;;;;5054248;28;20204;-86
2021/01/23 23:30:01;;;;;;;296.37;105.63;;;3.30;99.90;;;;;;5069770;28;20648;-86
2021/01/23 23:32:47;;;;;;;293.70;108.00;;;3.40;99.90;;;;;;5051719;28;20238;-85
2021/01/23 23:35:14;;;;;;;248.80;97.50;;;3.40;99.90;;;;;;5068631;28;20219;-86
2021/01/23 23:37:41;;;;;;;276.30;99.63;;;3.40;99.90;;;;;;5035690;28;20178;-86
2021/01/23 23:40:10;;;;;;;277.60;102.53;;;3.40;99.90;;;;;;5051726;28;20192;-87
2021/01/23 23:42:36;;;;;;;258.33;86.57;;;3.40;99.90;;;;;;5053405;28;20191;-85
2021/01/23 23:45:04;;;;;;;252.07;86.30;;;3.40;99.90;;;;;;5034763;28;20270;-86
2021/01/23 23:47:29;;;;;;;374.63;109.87;;;3.40;99.90;;;;;;5052187;28;20187;-85
2021/01/23 23:49:57;;;;;;;404.63;121.03;;;4.60;99.90;;;;;;5052130;28;20185;-85
2021/01/23 23:52:22;;;;;;;335.00;96.50;;;3.30;99.90;;;;;;5052359;28;20262;-85
2021/01/23 23:54:49;;;;;;;463.63;126.23;;;4.30;99.90;;;;;;5052276;28;20282;-86
2021/01/23 23:57:14;;;;;;;354.37;103.87;;;4.00;99.90;;;;;;5051861;28;20191;-84
2021/01/23 23:59:42;;;;;;;272.23;87.37;;;3.40;99.90;;;;;;5051734;28;20563;-85
